Time;durP1;ratioP1;P1;durP2;ratioP2;P2;SDS_P1;SDS_P2;PMS_P1;PMS_P2;Temp;Humidity;BMP_temperature;BMP_pressure;BME280_temperature;BME280_humidity;BME280_pressure;Samples;Min_cycle;Max_cycle;Signal;HPM_P1;HPM_P2
2021/12/05 00:22:10;;;;;;;25.98;24.27;;;;;;;;;;5034347;28;20479;-74
2021/12/05 00:24:41;;;;;;;26.95;25.00;;;;;;;;;;5033505;28;20042;-71
2021/12/05 00:27:18;;;;;;;21.10;19.20;;;;;;;;;;5035301;28;20021;-72
2021/12/05 00:30:07;;;;;;;20.58;18.73;;;;;;;;;;5033647;28;20017;-73
2021/12/05 00:43:24;;;;;;;18.10;16.70;;;;;;;;;;5033642;28;20049;-71
2021/12/05 01:02:40;;;;;;;12.98;11.73;;;;;;;;;;5037713;28;20474;-71
2021/12/05 01:11:13;;;;;;;15.27;13.45;;;;;;;;;;5038081;28;20032;-71
2021/12/05 01:14:09;;;;;;;14.10;12.70;;;;;;;;;;5036379;28;20026;-71
2021/12/05 01:16:36;;;;;;;14.80;13.30;;;;;;;;;;5037318;28;20026;-70
2021/12/05 01:19:05;;;;;;;18.40;13.40;;;;;;;;;;5036857;28;20026;-70
2021/12/05 01:21:33;;;;;;;15.27;13.82;;;;;;;;;;5036810;28;20493;-71
2021/12/05 01:24:10;;;;;;;18.83;14.13;;;;;;;;;;5037506;28;20556;-70
2021/12/05 01:31:55;;;;;;;14.15;12.40;;;;;;;;;;5042018;28;20068;-72
2021/12/05 02:01:45;;;;;;;11.98;10.82;;;;;;;;;;5037142;28;20028;-73
2021/12/05 02:12:35;;;;;;;11.57;9.88;;;;;;;;;;5036030;28;20026;-71
2021/12/05 02:15:25;;;;;;;9.25;8.35;;;;;;;;;;5036364;28;20034;-71
2021/12/05 02:34:40;;;;;;;14.82;8.70;;;;;;;;;;5036483;28;20052;-71
2021/12/05 02:42:33;;;;;;;10.57;6.65;;;;;;;;;;5035873;28;20060;-73
2021/12/05 02:45:01;;;;;;;11.35;6.65;;;;;;;;;;5034608;28;20021;-71
2021/12/05 02:47:28;;;;;;;9.65;6.47;;;;;;;;;;5034213;28;20026;-72
2021/12/05 02:49:57;;;;;;;9.45;6.57;;;;;;;;;;5035699;28;20021;-71
2021/12/05 02:52:31;;;;;;;13.27;6.65;;;;;;;;;;5035174;28;20474;-71
2021/12/05 02:55:04;;;;;;;12.15;6.78;;;;;;;;;;5035328;28;20030;-72
2021/12/05 03:00:18;;;;;;;13.75;8.23;;;;;;;;;;5035061;28;20021;-70
2021/12/05 03:02:48;;;;;;;8.77;5.47;;;;;;;;;;5033667;28;20025;-71
2021/12/05 03:05:19;;;;;;;14.07;6.47;;;;;;;;;;5035989;28;20021;-72
2021/12/05 03:07:49;;;;;;;9.15;5.70;;;;;;;;;;5034688;28;20036;-72
2021/12/05 03:10:18;;;;;;;11.75;4.80;;;;;;;;;;5035724;28;20021;-72
2021/12/05 03:12:46;;;;;;;7.63;4.90;;;;;;;;;;5035295;28;20076;-72
2021/12/05 03:15:14;;;;;;;7.15;4.78;;;;;;;;;;5034110;28;20017;-72
2021/12/05 03:17:42;;;;;;;10.15;5.15;;;;;;;;;;5033912;28;20029;-71
2021/12/05 03:20:10;;;;;;;8.82;5.15;;;;;;;;;;5035016;28;20036;-71
2021/12/05 03:22:38;;;;;;;9.48;5.30;;;;;;;;;;5032692;28;20032;-71
2021/12/05 03:25:06;;;;;;;9.85;5.10;;;;;;;;;;5034988;28;20021;-70
2021/12/05 03:27:34;;;;;;;5.40;4.80;;;;;;;;;;5033782;28;20079;-71
2021/12/05 03:30:02;;;;;;;9.65;4.78;;;;;;;;;;5034881;28;20071;-72
2021/12/05 03:32:29;;;;;;;6.55;4.45;;;;;;;;;;5034916;28;20041;-73
2021/12/05 03:34:56;;;;;;;7.22;4.15;;;;;;;;;;5034994;28;20491;-72
2021/12/05 03:37:23;;;;;;;6.20;4.30;;;;;;;;;;5035283;28;20096;-72
2021/12/05 03:39:50;;;;;;;8.30;4.90;;;;;;;;;;5034930;28;20506;-72
2021/12/05 03:42:17;;;;;;;10.35;5.00;;;;;;;;;;5033125;28;20528;-72
2021/12/05 03:44:45;;;;;;;12.90;4.68;;;;;;;;;;5034944;28;20032;-72
2021/12/05 03:47:12;;;;;;;8.73;4.57;;;;;;;;;;5034851;28;20045;-72
2021/12/05 03:49:39;;;;;;;8.43;4.05;;;;;;;;;;5034907;28;20021;-72
2021/12/05 03:52:09;;;;;;;8.85;4.07;;;;;;;;;;5034529;28;20022;-71
2021/12/05 03:54:36;;;;;;;11.60;5.47;;;;;;;;;;5032683;28;20022;-72
2021/12/05 03:57:05;;;;;;;6.43;4.15;;;;;;;;;;5033970;28;20422;-72
2021/12/05 03:59:33;;;;;;;12.10;5.18;;;;;;;;;;5033479;28;20374;-72
2021/12/05 04:02:01;;;;;;;7.32;3.85;;;;;;;;;;5032561;28;20021;-72
2021/12/05 04:04:28;;;;;;;10.60;3.90;;;;;;;;;;5032280;28;20023;-72
2021/12/05 04:06:55;;;;;;;8.40;3.72;;;;;;;;;;5032313;28;20021;-72
2021/12/05 04:09:22;;;;;;;11.23;4.93;;;;;;;;;;5033602;28;20022;-72
2021/12/05 04:11:59;;;;;;;9.20;4.15;;;;;;;;;;5032253;28;20048;-72
2021/12/05 04:14:29;;;;;;;5.97;3.72;;;;;;;;;;5033660;28;20028;-71
2021/12/05 04:16:56;;;;;;;8.30;3.75;;;;;;;;;;5032054;28;20371;-72
2021/12/05 04:19:23;;;;;;;7.63;3.83;;;;;;;;;;5033553;28;20470;-71
2021/12/05 04:21:50;;;;;;;7.30;3.38;;;;;;;;;;5033621;28;20021;-72
2021/12/05 04:24:18;;;;;;;8.73;3.60;;;;;;;;;;5033365;28;20078;-72
2021/12/05 04:26:46;;;;;;;13.85;3.90;;;;;;;;;;5033265;28;20018;-71
2021/12/05 04:29:13;;;;;;;7.88;3.70;;;;;;;;;;5033118;28;20021;-73
2021/12/05 04:31:41;;;;;;;10.75;2.90;;;;;;;;;;5033262;28;20059;-72
2021/12/05 04:34:08;;;;;;;10.55;2.95;;;;;;;;;;5033359;28;20026;-72
2021/12/05 04:36:36;;;;;;;8.80;2.83;;;;;;;;;;5033312;28;20033;-72
2021/12/05 04:39:04;;;;;;;8.13;2.63;;;;;;;;;;5031930;28;20025;-72
2021/12/05 04:41:31;;;;;;;12.13;3.45;;;;;;;;;;5033041;28;20074;-72
2021/12/05 04:43:59;;;;;;;6.82;3.13;;;;;;;;;;5032004;28;20068;-72
2021/12/05 04:46:26;;;;;;;7.43;2.92;;;;;;;;;;5033038;28;20025;-72
2021/12/05 04:48:55;;;;;;;7.78;2.90;;;;;;;;;;5033000;28;20486;-71
2021/12/05 04:51:26;;;;;;;8.07;3.08;;;;;;;;;;5033199;28;20017;-71
2021/12/05 04:53:53;;;;;;;;;;;;;;;;;;5033444;28;20026;-70
2021/12/05 04:56:20;;;;;;;9.73;3.08;;;;;;;;;;5033523;28;19905;-71
2021/12/05 04:58:47;;;;;;;11.20;3.42;;;;;;;;;;5033235;28;20094;-71
2021/12/05 05:01:15;;;;;;;10.77;3.83;;;;;;;;;;5033154;28;20021;-72
2021/12/05 05:03:42;;;;;;;5.30;2.97;;;;;;;;;;5031512;28;20025;-74
2021/12/05 05:06:14;;;;;;;8.82;2.90;;;;;;;;;;5032901;28;20494;-72
2021/12/05 05:08:42;;;;;;;9.65;3.10;;;;;;;;;;5032982;28;20029;-72
2021/12/05 05:11:13;;;;;;;11.57;3.47;;;;;;;;;;5033106;28;20446;-71
2021/12/05 05:13:41;;;;;;;7.55;3.20;;;;;;;;;;5031478;28;20449;-71
2021/12/05 05:16:09;;;;;;;8.75;4.22;;;;;;;;;;5033138;28;20041;-73
2021/12/05 05:18:57;;;;;;;13.68;4.30;;;;;;;;;;5032846;28;20045;-71
2021/12/05 05:46:19;;;;;;;7.18;1.10;;;19.10;99.90;;;;;;5035434;28;20042;-70
2021/12/05 05:48:56;;;;;;;8.00;1.10;;;19.10;99.90;;;;;;5090302;28;20012;-68
2021/12/05 05:51:24;;;;;;;5.60;1.45;;;18.90;99.90;;;;;;5089043;28;20111;-70
2021/12/05 05:53:52;;;;;;;7.05;1.23;;;18.90;99.90;;;;;;5090319;28;20036;-69
2021/12/05 05:56:23;;;;;;;7.22;1.10;;;18.90;99.90;;;;;;5090122;28;20012;-69
2021/12/05 05:58:57;;;;;;;8.43;1.27;;;18.80;99.90;;;;;;5090060;28;20389;-69
2021/12/05 06:04:08;;;;;;;10.30;1.30;;;18.70;99.90;;;;;;5090229;28;20487;-71
2021/12/05 06:06:36;;;;;;;9.80;1.70;;;18.60;99.90;;;;;;5090207;28;20094;-70
2021/12/05 06:09:03;;;;;;;9.43;1.25;;;18.60;99.90;;;;;;5090065;28;20488;-69
2021/12/05 06:11:31;;;;;;;7.53;1.80;;;18.60;99.90;;;;;;5090275;28;20115;-69
2021/12/05 06:13:58;;;;;;;5.03;1.00;;;18.60;99.90;;;;;;5090002;28;20024;-69
2021/12/05 06:16:26;;;;;;;8.35;1.30;;;18.60;99.90;;;;;;5089939;28;20104;-69
2021/12/05 06:18:53;;;;;;;8.77;1.52;;;18.60;99.90;;;;;;5088433;28;20021;-69
2021/12/05 06:21:21;;;;;;;6.07;0.90;;;18.60;99.90;;;;;;5089674;28;20439;-69
2021/12/05 06:23:48;;;;;;;8.65;1.38;;;18.60;99.90;;;;;;5089672;28;20484;-70
2021/12/05 06:26:21;;;;;;;4.75;1.25;;;18.60;99.90;;;;;;5089697;28;20020;-70
2021/12/05 06:29:39;;;;;;;5.85;1.60;;;18.60;99.90;;;;;;5089798;28;20021;-69
2021/12/05 06:42:02;;;;;;;;;;;18.60;99.90;;;;;;5089642;28;20037;-70
2021/12/05 06:47:16;;;;;;;8.63;1.23;;;18.60;99.90;;;;;;5089472;28;20081;-69
2021/12/05 06:49:45;;;;;;;5.80;1.58;;;18.50;99.90;;;;;;5089350;28;20099;-70
2021/12/05 06:52:12;;;;;;;8.70;1.38;;;18.50;99.90;;;;;;5089316;28;20469;-69
2021/12/05 06:54:41;;;;;;;9.00;1.50;;;18.50;99.90;;;;;;5074305;28;20507;-69
2021/12/05 06:57:08;;;;;;;11.52;1.77;;;18.50;99.90;;;;;;5075548;28;20024;-68
2021/12/05 06:59:39;;;;;;;9.15;1.95;;;18.40;99.90;;;;;;5075531;28;20024;-69
2021/12/05 07:02:08;;;;;;;13.45;1.92;;;18.40;99.90;;;;;;5075667;28;20035;-68
2021/12/05 07:07:14;;;;;;;8.68;1.77;;;18.30;99.90;;;;;;5075384;28;20478;-68
2021/12/05 07:09:42;;;;;;;9.82;2.17;;;18.20;99.90;;;;;;5074048;28;20432;-68
2021/12/05 07:12:44;;;;;;;9.05;1.60;;;18.20;99.90;;;;;;5075625;28;20021;-68
2021/12/05 07:20:06;;;;;;;7.25;1.42;;;18.10;99.90;;;;;;5075985;28;20430;-69
2021/12/05 07:22:49;;;;;;;5.30;1.42;;;18.20;99.90;;;;;;5075270;28;20052;-68
2021/12/05 07:42:18;;;;;;;7.85;1.75;;;18.00;99.90;;;;;;5074754;28;20114;-68
2021/12/05 07:44:45;;;;;;;12.75;2.28;;;17.90;99.90;;;;;;5075245;28;20034;-67
2021/12/05 07:47:18;;;;;;;7.88;1.50;;;17.90;99.90;;;;;;5074844;28;20039;-68
2021/12/05 07:49:50;;;;;;;9.63;1.88;;;17.90;99.90;;;;;;5074871;28;20074;-68
2021/12/05 07:52:22;;;;;;;9.38;1.90;;;17.90;99.90;;;;;;5073562;28;20020;-68
2021/12/05 07:54:57;;;;;;;10.57;1.70;;;18.00;99.90;;;;;;5074726;28;20037;-68
2021/12/05 07:57:31;;;;;;;6.13;1.30;;;17.90;99.90;;;;;;5074491;28;20481;-69
2021/12/05 08:16:19;;;;;;;8.15;2.25;;;17.90;99.90;;;;;;5074653;28;20047;-70
2021/12/05 08:18:46;;;;;;;9.75;1.70;;;17.80;99.90;;;;;;5074370;28;20032;-68
2021/12/05 08:21:15;;;;;;;9.02;1.42;;;17.80;99.90;;;;;;5074059;28;20024;-69
2021/12/05 08:23:44;;;;;;;8.18;1.10;;;17.80;99.90;;;;;;5072656;28;20107;-68
2021/12/05 08:26:18;;;;;;;7.30;1.30;;;17.80;99.90;;;;;;5072684;28;20162;-68
2021/12/05 08:29:03;;;;;;;12.80;2.03;;;17.80;99.90;;;;;;5073593;28;20454;-68
2021/12/05 08:37:36;;;;;;;8.45;1.75;;;17.80;99.90;;;;;;5073581;28;20023;-68
2021/12/05 09:21:24;;;;;;;5.32;1.52;;;17.50;99.90;;;;;;5072624;28;20434;-70
2021/12/05 10:02:22;;;;;;;10.77;2.22;;;;;;;;;;5073111;28;20542;-69
2021/12/05 10:07:53;;;;;;;7.85;1.40;;;;;;;;;;5072838;28;20056;-71
2021/12/05 10:10:43;;;;;;;6.15;1.50;;;;;;;;;;5072391;28;20032;-70
2021/12/05 10:16:10;;;;;;;7.68;1.50;;;;;;;;;;5073268;28;20033;-70
2021/12/05 10:37:50;;;;;;;8.63;1.77;;;;;;;;;;5076087;28;20438;-69
2021/12/05 10:40:30;;;;;;;8.65;1.65;;;;;;;;;;5075921;28;20016;-70
2021/12/05 10:42:57;;;;;;;5.85;1.52;;;;;;;;;;5075775;28;20063;-70
2021/12/05 10:45:32;;;;;;;7.55;1.13;;;;;;;;;;5076072;28;20016;-70
2021/12/05 10:48:03;;;;;;;6.10;1.15;;;;;;;;;;5074568;28;20044;-70
2021/12/05 10:50:30;;;;;;;;;;;;;;;;;;5074652;28;20017;-70
2021/12/05 10:53:15;;;;;;;9.73;1.63;;;;;;;;;;5075428;28;19940;-70
2021/12/05 10:55:42;;;;;;;10.23;1.27;;;;;;;;;;5075319;28;20035;-70
2021/12/05 10:58:09;;;;;;;7.13;1.20;;;;;;;;;;5075342;28;20043;-70
2021/12/05 11:00:36;;;;;;;8.02;1.40;;;;;;;;;;5074056;28;20027;-70
2021/12/05 11:03:16;;;;;;;8.50;1.33;;;;;;;;;;5075405;28;20396;-70
2021/12/05 11:05:44;;;;;;;8.20;1.00;;;;;;;;;;5075343;28;20470;-70
2021/12/05 11:08:29;;;;;;;7.10;1.40;;;;;;;;;;5074083;28;20028;-70
2021/12/05 11:11:13;;;;;;;8.52;1.10;;;;;;;;;;5075142;28;20385;-69
2021/12/05 11:13:43;;;;;;;6.57;1.10;;;;;;;;;;5075023;28;20035;-70
2021/12/05 11:16:32;;;;;;;8.65;1.42;;;16.80;99.90;;;;;;5075099;28;20023;-71
2021/12/05 11:18:59;;;;;;;12.10;1.45;;;;;;;;;;5073653;28;20029;-70
2021/12/05 11:21:33;;;;;;;5.97;1.13;;;;;;;;;;5073493;28;20040;-70
2021/12/05 11:24:10;;;;;;;8.30;1.60;;;;;;;;;;5074810;28;20070;-70
2021/12/05 11:26:38;;;;;;;7.88;1.10;;;;;;;;;;5073485;28;20206;-70
2021/12/05 11:29:06;;;;;;;7.00;1.00;;;;;;;;;;5074669;28;20420;-70
2021/12/05 11:31:35;;;;;;;7.18;1.10;;;;;;;;;;5073582;28;20032;-70
2021/12/05 11:34:02;;;;;;;5.55;0.93;;;;;;;;;;5074886;28;20022;-70
2021/12/05 11:36:32;;;;;;;6.07;1.10;;;;;;;;;;5074788;28;20044;-70
2021/12/05 11:39:00;;;;;;;6.88;1.40;;;;;;;;;;5074845;28;20028;-70
2021/12/05 11:41:27;;;;;;;6.25;1.30;;;;;;;;;;5074385;28;20040;-71
2021/12/05 11:43:56;;;;;;;9.52;1.77;;;;;;;;;;5073674;28;20052;-71
2021/12/05 11:46:25;;;;;;;7.28;1.23;;;;;;;;;;5073359;28;20040;-70
2021/12/05 11:48:53;;;;;;;11.55;1.95;;;;;;;;;;5073246;28;20452;-69
2021/12/05 11:51:49;;;;;;;6.95;1.20;;;;;;;;;;5074333;28;20032;-70
2021/12/05 11:54:25;;;;;;;7.45;1.50;;;;;;;;;;5065781;28;20044;-71
2021/12/05 11:56:56;;;;;;;8.60;1.40;;;;;;;;;;5074394;28;20032;-70
2021/12/05 11:59:24;;;;;;;8.68;1.35;;;;;;;;;;5074292;28;20061;-70
2021/12/05 12:01:59;;;;;;;5.55;1.67;;;;;;;;;;5074246;28;20029;-70
2021/12/05 12:04:38;;;;;;;10.43;1.52;;;;;;;;;;5072921;28;20025;-70
2021/12/05 12:07:13;;;;;;;8.27;1.33;;;;;;;;;;5073016;28;20401;-70
2021/12/05 12:09:41;;;;;;;6.57;1.25;;;;;;;;;;5074100;28;20082;-70
2021/12/05 12:12:09;;;;;;;7.30;1.30;;;;;;;;;;5073787;28;20362;-70
2021/12/05 12:14:37;;;;;;;5.20;1.20;;;;;;;;;;5073880;28;20021;-71
2021/12/05 12:17:08;;;;;;;10.77;1.80;;;;;;;;;;5073963;28;20035;-71
2021/12/05 12:19:36;;;;;;;11.45;1.90;;;;;;;;;;5073882;28;20392;-70
2021/12/05 12:22:05;;;;;;;8.35;1.23;;;;;;;;;;5072204;28;20024;-70
2021/12/05 12:24:33;;;;;;;8.48;1.65;;;;;;;;;;5072518;28;20025;-70
2021/12/05 12:27:00;;;;;;;8.27;1.42;;;;;;;;;;5073827;28;20020;-71
2021/12/05 12:29:28;;;;;;;8.27;1.38;;;;;;;;;;5073764;28;20032;-70
2021/12/05 12:32:00;;;;;;;10.35;1.73;;;;;;;;;;5072401;28;20509;-70
2021/12/05 12:34:27;;;;;;;10.43;1.77;;;;;;;;;;5072307;28;20398;-70
2021/12/05 12:36:59;;;;;;;8.57;1.48;;;;;;;;;;5073415;28;20020;-70
2021/12/05 12:39:28;;;;;;;11.95;2.10;;;;;;;;;;5073737;28;20467;-71
2021/12/05 12:42:01;;;;;;;14.02;1.75;;;;;;;;;;5072009;28;20044;-70
2021/12/05 12:44:29;;;;;;;11.43;1.77;;;;;;;;;;5072060;28;20032;-70
2021/12/05 12:46:57;;;;;;;9.98;1.27;;;;;;;;;;5072008;28;20512;-70
2021/12/05 12:49:26;;;;;;;11.77;1.67;;;;;;;;;;5073449;28;20024;-70
2021/12/05 12:52:18;;;;;;;9.10;2.13;;;;;;;;;;5072922;28;20048;-70
2021/12/05 12:54:48;;;;;;;10.10;2.28;;;;;;;;;;5073385;28;20562;-70
2021/12/05 12:57:19;;;;;;;9.23;1.52;;;;;;;;;;5071890;28;20432;-70
2021/12/05 13:00:00;;;;;;;11.77;2.38;;;;;;;;;;5073230;28;20074;-71
2021/12/05 13:05:35;;;;;;;10.10;1.23;;;;;;;;;;5073375;28;20481;-70
2021/12/05 13:11:04;;;;;;;9.40;1.70;;;;;;;;;;5073277;28;20027;-71
2021/12/05 13:13:32;;;;;;;9.20;1.73;;;;;;;;;;5073134;28;20135;-70
2021/12/05 13:16:14;;;;;;;9.68;1.85;;;;;;;;;;5071520;28;20024;-71
2021/12/05 13:18:42;;;;;;;11.40;1.52;;;;;;;;;;5073050;28;20043;-70
2021/12/05 13:21:11;;;;;;;11.15;2.25;;;;;;;;;;5071399;28;20107;-70
2021/12/05 13:23:50;;;;;;;7.75;1.48;;;;;;;;;;5073013;28;20504;-70
2021/12/05 13:26:19;;;;;;;7.80;1.10;;;;;;;;;;5071375;28;20016;-70
2021/12/05 13:28:51;;;;;;;8.88;1.50;;;;;;;;;;5072786;28;20383;-70
2021/12/05 13:31:33;;;;;;;7.30;1.65;;;;;;;;;;5071363;28;20024;-71
2021/12/05 13:34:18;;;;;;;10.13;2.05;;;;;;;;;;5072699;28;20017;-70
2021/12/05 13:36:47;;;;;;;5.82;1.13;;;;;;;;;;5071388;28;20031;-70
2021/12/05 13:39:32;;;;;;;7.72;1.45;;;;;;;;;;5071241;28;20021;-71
2021/12/05 13:42:06;;;;;;;6.75;1.10;;;;;;;;;;5071140;28;20105;-70
2021/12/05 13:44:51;;;;;;;6.57;1.25;;;;;;;;;;5071458;28;20112;-71
2021/12/05 13:47:19;;;;;;;8.35;2.42;;;;;;;;;;5072841;28;20020;-70
2021/12/05 13:49:47;;;;;;;5.57;1.58;;;;;;;;;;5071525;28;20027;-70
2021/12/05 13:52:32;;;;;;;14.95;1.90;;;;;;;;;;5072730;28;20063;-71
2021/12/05 13:55:18;;;;;;;12.25;1.70;;;;;;;;;;5071304;28;20373;-70
2021/12/05 13:58:03;;;;;;;6.38;1.10;;;;;;;;;;5072442;28;20082;-70
2021/12/05 14:00:44;;;;;;;7.93;1.30;;;;;;;;;;5071126;28;20028;-70
2021/12/05 14:03:12;;;;;;;12.57;1.83;;;;;;;;;;5071765;28;20542;-70
2021/12/05 14:05:47;;;;;;;8.93;1.60;;;;;;;;;;5076472;28;20024;-70
2021/12/05 14:08:14;;;;;;;10.23;1.58;;;;;;;;;;5076744;28;20017;-70
2021/12/05 14:10:45;;;;;;;10.27;1.70;;;;;;;;;;5076497;28;20040;-70
2021/12/05 14:13:11;;;;;;;;;;;;;;;;;;5076787;28;20059;-70
2021/12/05 14:15:40;;;;;;;13.43;2.47;;;;;;;;;;5076305;28;19905;-70
2021/12/05 14:18:08;;;;;;;11.60;1.45;;;;;;;;;;5076224;28;20073;-70
2021/12/05 14:20:35;;;;;;;5.60;1.52;;;;;;;;;;5076312;28;20024;-71
2021/12/05 14:23:05;;;;;;;8.30;1.27;;;;;;;;;;5076338;28;20052;-71
2021/12/05 14:25:32;;;;;;;9.98;1.30;;;;;;;;;;5074980;28;20021;-70
2021/12/05 14:28:02;;;;;;;6.60;1.35;;;;;;;;;;5074838;28;20024;-70
2021/12/05 14:30:30;;;;;;;8.25;1.77;;;;;;;;;;5074643;28;20357;-71
2021/12/05 14:32:58;;;;;;;11.68;1.55;;;;;;;;;;5074625;28;20112;-71
2021/12/05 14:35:29;;;;;;;10.32;1.35;;;;;;;;;;5074398;28;20043;-70
2021/12/05 14:37:56;;;;;;;6.20;1.05;;;;;;;;;;5075814;28;20025;-70
2021/12/05 14:40:30;;;;;;;9.85;1.70;;;;;;;;;;5074612;28;20060;-70
2021/12/05 14:42:59;;;;;;;5.80;0.98;;;;;;;;;;5075834;28;20115;-71
2021/12/05 14:45:28;;;;;;;6.68;1.20;;;;;;;;;;5074347;28;20397;-70
2021/12/05 14:47:56;;;;;;;5.95;1.00;;;;;;;;;;5074501;28;20024;-70
2021/12/05 14:50:32;;;;;;;10.90;1.40;;;;;;;;;;5074528;28;20462;-70
2021/12/05 14:53:00;;;;;;;7.35;1.05;;;;;;;;;;5075851;28;20025;-70
2021/12/05 14:55:28;;;;;;;11.65;1.40;;;;;;;;;;5075976;28;20055;-71
2021/12/05 14:57:57;;;;;;;6.90;1.42;;;;;;;;;;5075763;28;20028;-71
2021/12/05 15:00:24;;;;;;;8.90;1.33;;;;;;;;;;5076098;28;20051;-71
2021/12/05 15:03:01;;;;;;;7.97;1.90;;;;;;;;;;5074215;28;20028;-70
2021/12/05 15:05:28;;;;;;;10.10;1.60;;;;;;;;;;5076008;28;20093;-71
2021/12/05 15:08:02;;;;;;;9.02;1.73;;;;;;;;;;5075937;28;20028;-71
2021/12/05 15:10:29;;;;;;;5.15;1.00;;;;;;;;;;5074697;28;20077;-70
2021/12/05 15:12:57;;;;;;;7.72;1.38;;;;;;;;;;5075534;28;20025;-70
2021/12/05 15:15:26;;;;;;;6.80;1.63;;;;;;;;;;5074941;28;20393;-70
2021/12/05 15:17:54;;;;;;;7.78;1.40;;;;;;;;;;5075359;28;20095;-70
2021/12/05 15:20:23;;;;;;;9.05;1.77;;;;;;;;;;5075501;28;20385;-70
2021/12/05 15:22:55;;;;;;;8.45;1.55;;;;;;;;;;5075508;28;20025;-70
2021/12/05 15:25:27;;;;;;;9.85;1.20;;;;;;;;;;5075772;28;20389;-72
2021/12/05 15:27:55;;;;;;;6.25;1.02;;;;;;;;;;5075808;28;20024;-70
2021/12/05 15:30:27;;;;;;;10.13;1.80;;;;;;;;;;5075767;28;20047;-71
2021/12/05 15:32:56;;;;;;;9.77;1.85;;;;;;;;;;5074412;28;20401;-71
2021/12/05 15:35:23;;;;;;;10.48;1.58;;;;;;;;;;5074027;28;20081;-71
2021/12/05 15:37:54;;;;;;;8.77;1.10;;;;;;;;;;5075251;28;20099;-72
2021/12/05 15:40:22;;;;;;;9.30;1.40;;;;;;;;;;5075536;28;20078;-70
2021/12/05 15:42:50;;;;;;;8.27;1.10;;;;;;;;;;5073928;28;20051;-70
2021/12/05 15:45:18;;;;;;;11.50;1.35;;;;;;;;;;5075167;28;20021;-70
2021/12/05 15:47:46;;;;;;;10.60;1.35;;;;;;;;;;5074725;28;20492;-71
2021/12/05 15:50:15;;;;;;;7.22;1.00;;;;;;;;;;5074882;28;20021;-70
2021/12/05 15:52:49;;;;;;;11.43;1.50;;;;;;;;;;5075336;28;20025;-70
2021/12/05 15:55:20;;;;;;;10.63;1.27;;;;;;;;;;5075194;28;20020;-70
2021/12/05 15:57:46;;;;;;;;;;;;;;;;;;5075887;28;20094;-71
2021/12/05 16:00:22;;;;;;;9.52;1.50;;;;;;;;;;5075114;28;19912;-70
2021/12/05 16:03:07;;;;;;;9.60;1.50;;;16.90;99.90;;;;;;5075091;28;20446;-71
2021/12/05 16:05:36;;;;;;;10.38;1.48;;;17.00;99.90;;;;;;5074064;28;20028;-71
2021/12/05 16:08:10;;;;;;;9.23;1.60;;;16.90;99.90;;;;;;5074755;28;20035;-71
2021/12/05 16:10:41;;;;;;;8.90;1.73;;;16.90;99.90;;;;;;5073461;28;20039;-71
2021/12/05 16:13:11;;;;;;;11.52;1.33;;;16.90;99.90;;;;;;5075177;28;20020;-71
2021/12/05 16:15:40;;;;;;;8.23;1.17;;;16.90;99.90;;;;;;5074796;28;20093;-71
2021/12/05 16:18:07;;;;;;;10.30;1.23;;;16.90;99.90;;;;;;5074708;28;20056;-71
2021/12/05 16:20:48;;;;;;;12.48;1.83;;;16.90;99.90;;;;;;5074461;28;20056;-71
2021/12/05 16:23:26;;;;;;;9.85;1.48;;;17.00;99.90;;;;;;5074424;28;20040;-71
2021/12/05 16:26:06;;;;;;;8.38;1.33;;;17.00;99.90;;;;;;5073834;28;20020;-71
2021/12/05 16:28:39;;;;;;;5.50;0.90;;;17.00;99.90;;;;;;5072894;28;20016;-71
2021/12/05 16:31:35;;;;;;;14.30;1.40;;;17.00;99.90;;;;;;5072680;28;20020;-71
2021/12/05 16:34:11;;;;;;;6.40;1.20;;;17.00;99.90;;;;;;5074445;28;20473;-71
2021/12/05 16:37:00;;;;;;;9.00;1.50;;;17.00;99.90;;;;;;5072930;28;20024;-70
2021/12/05 16:39:38;;;;;;;9.90;1.60;;;17.00;99.90;;;;;;5074078;28;20038;-71
2021/12/05 16:42:11;;;;;;;9.75;1.67;;;17.00;99.90;;;;;;5074019;28;20041;-70
2021/12/05 16:44:40;;;;;;;11.40;1.90;;;17.00;99.90;;;;;;5074116;28;20032;-71
2021/12/05 16:47:14;;;;;;;7.20;1.67;;;17.00;99.90;;;;;;5074256;28;20044;-70
2021/12/05 16:49:45;;;;;;;7.47;1.48;;;17.00;99.90;;;;;;5072688;28;20492;-71
2021/12/05 16:52:22;;;;;;;6.78;1.23;;;17.00;99.90;;;;;;5074095;28;20086;-71
2021/12/05 16:54:51;;;;;;;8.05;0.82;;;16.90;99.90;;;;;;5074094;28;20386;-70
2021/12/05 16:57:35;;;;;;;7.28;1.88;;;16.90;99.90;;;;;;5072512;28;20028;-71
2021/12/05 17:00:11;;;;;;;8.60;1.20;;;16.90;99.90;;;;;;5072692;28;20101;-70
2021/12/05 17:02:53;;;;;;;7.40;1.02;;;16.90;99.90;;;;;;5073862;28;20424;-71
2021/12/05 17:05:23;;;;;;;9.63;1.65;;;16.90;99.90;;;;;;5073956;28;20023;-70
2021/12/05 17:08:17;;;;;;;5.55;1.08;;;16.90;99.90;;;;;;5072275;28;20074;-70
2021/12/05 17:10:47;;;;;;;7.75;1.15;;;16.90;99.90;;;;;;5072583;28;20124;-69
2021/12/05 17:13:37;;;;;;;8.55;1.40;;;16.90;99.90;;;;;;5072686;28;20024;-70
2021/12/05 17:16:11;;;;;;;12.38;1.45;;;16.90;99.90;;;;;;5072324;28;20040;-70
2021/12/05 17:19:08;;;;;;;7.50;1.60;;;16.90;99.90;;;;;;5073530;28;20048;-70
2021/12/05 17:21:54;;;;;;;6.03;1.30;;;16.90;99.90;;;;;;5072351;28;20054;-71
2021/12/05 17:24:28;;;;;;;7.88;1.52;;;16.90;99.90;;;;;;5072442;28;20017;-71
2021/12/05 17:27:00;;;;;;;9.40;1.00;;;16.90;99.90;;;;;;5073580;28;20472;-70
2021/12/05 17:29:38;;;;;;;10.98;1.58;;;17.00;99.90;;;;;;5073543;28;20069;-70
2021/12/05 17:32:21;;;;;;;9.77;1.10;;;17.00;99.90;;;;;;5073477;28;20032;-70
2021/12/05 17:34:52;;;;;;;14.15;1.98;;;16.90;99.90;;;;;;5075288;28;20025;-70
2021/12/05 17:37:26;;;;;;;11.90;2.55;;;16.90;99.90;;;;;;5073071;28;20017;-70
2021/12/05 17:39:54;;;;;;;11.02;1.50;;;16.90;99.90;;;;;;5071802;28;20024;-70
2021/12/05 17:42:24;;;;;;;8.73;1.48;;;16.90;99.90;;;;;;5071421;28;20098;-71
2021/12/05 17:44:55;;;;;;;7.75;1.15;;;16.80;99.90;;;;;;5073144;28;20028;-70
2021/12/05 17:47:22;;;;;;;6.07;1.02;;;;;;;;;;5073171;28;20154;-70
2021/12/05 17:49:52;;;;;;;7.53;1.50;;;;;;;;;;5071482;28;20027;-70
2021/12/05 17:52:21;;;;;;;7.30;1.35;;;;;;;;;;5072992;28;20016;-70
2021/12/05 17:57:19;;;;;;;8.20;1.50;;;;;;;;;;5073230;28;20047;-70
2021/12/05 18:00:14;;;;;;;8.90;1.27;;;;;;;;;;5073145;28;20478;-70
2021/12/05 18:02:53;;;;;;;6.95;1.33;;;;;;;;;;5072821;28;20055;-71
2021/12/05 18:05:23;;;;;;;7.43;1.65;;;;;;;;;;5072938;28;20028;-70
2021/12/05 18:07:52;;;;;;;10.30;1.88;;;;;;;;;;5071770;28;20027;-70
2021/12/05 18:10:21;;;;;;;8.35;1.67;;;;;;;;;;5073111;28;20025;-71
2021/12/05 18:12:50;;;;;;;10.20;1.77;;;;;;;;;;5073016;28;20393;-70
2021/12/05 18:15:24;;;;;;;8.40;1.13;;;;;;;;;;5071318;28;20024;-70
2021/12/05 18:17:52;;;;;;;11.13;1.95;;;;;;;;;;5071337;28;20029;-71
2021/12/05 18:20:25;;;;;;;10.20;1.67;;;16.60;99.90;;;;;;5071403;28;20036;-70
2021/12/05 18:23:00;;;;;;;7.82;1.40;;;16.60;99.90;;;;;;5072786;28;20032;-71
2021/12/05 18:25:28;;;;;;;11.25;1.50;;;16.60;99.90;;;;;;5072551;28;20091;-71
2021/12/05 18:27:57;;;;;;;6.95;1.20;;;16.60;99.90;;;;;;5072623;28;20108;-71
2021/12/05 18:30:27;;;;;;;10.73;1.92;;;16.60;99.90;;;;;;5071269;28;20129;-71
2021/12/05 18:32:57;;;;;;;7.82;1.80;;;16.50;99.90;;;;;;5071091;28;20443;-70
2021/12/05 18:35:30;;;;;;;8.38;1.80;;;;;;;;;;5072422;28;20103;-70
2021/12/05 18:37:58;;;;;;;6.50;1.60;;;;;;;;;;5072685;28;20627;-71
2021/12/05 18:40:26;;;;;;;7.15;1.08;;;;;;;;;;5071202;28;20024;-71
2021/12/05 18:42:53;;;;;;;7.60;1.42;;;;;;;;;;5071094;28;20044;-71
2021/12/05 18:45:23;;;;;;;8.00;1.27;;;;;;;;;;5072464;28;20380;-70
2021/12/05 18:47:50;;;;;;;7.22;1.60;;;;;;;;;;5072456;28;20017;-70
2021/12/05 18:50:17;;;;;;;7.00;1.13;;;;;;;;;;5073180;28;20032;-72
2021/12/05 18:52:45;;;;;;;8.18;1.20;;;;;;;;;;5076265;28;20032;-70
2021/12/05 18:55:17;;;;;;;11.00;2.05;;;;;;;;;;5075743;28;20025;-70
2021/12/05 18:57:46;;;;;;;8.20;1.48;;;;;;;;;;5075574;28;20023;-70
2021/12/05 19:00:24;;;;;;;7.82;1.70;;;;;;;;;;5076013;28;20508;-70
2021/12/05 19:08:51;;;;;;;9.45;2.10;;;;;;;;;;5070849;28;20029;-70
2021/12/05 19:14:04;;;;;;;12.50;1.90;;;;;;;;;;5076034;28;20064;-71
2021/12/05 19:16:31;;;;;;;12.30;2.45;;;;;;;;;;5075798;28;20012;-70
2021/12/05 19:18:58;;;;;;;9.20;1.60;;;;;;;;;;5074364;28;20024;-70
2021/12/05 19:21:26;;;;;;;9.57;1.70;;;;;;;;;;5075513;28;20016;-70
2021/12/05 19:23:53;;;;;;;9.65;1.83;;;;;;;;;;5075544;28;20099;-70
2021/12/05 19:26:22;;;;;;;7.90;2.03;;;;;;;;;;5075670;28;20046;-70
2021/12/05 19:28:49;;;;;;;13.07;2.17;;;;;;;;;;5075359;28;20040;-70
2021/12/05 19:31:16;;;;;;;12.07;2.22;;;;;;;;;;5075477;28;20075;-70
2021/12/05 19:33:43;;;;;;;8.20;1.42;;;;;;;;;;5075121;28;20093;-70
2021/12/05 19:36:14;;;;;;;10.20;1.77;;;;;;;;;;5073692;28;20500;-70
2021/12/05 19:38:43;;;;;;;10.02;2.35;;;;;;;;;;5075031;28;20027;-70
2021/12/05 19:41:10;;;;;;;8.00;1.50;;;;;;;;;;5074886;28;20054;-70
2021/12/05 19:43:38;;;;;;;7.85;1.73;;;;;;;;;;5073720;28;20401;-70
2021/12/05 19:46:10;;;;;;;7.55;2.03;;;;;;;;;;5074927;28;20021;-70
2021/12/05 19:48:37;;;;;;;9.82;2.42;;;;;;;;;;5073781;28;20021;-70
2021/12/05 19:51:07;;;;;;;8.90;1.70;;;;;;;;;;5074956;28;20029;-70
2021/12/05 19:53:36;;;;;;;7.45;1.80;;;;;;;;;;5075072;28;20371;-70
2021/12/05 19:56:03;;;;;;;9.18;1.65;;;;;;;;;;5075114;28;20031;-70
2021/12/05 19:58:30;;;;;;;9.27;1.67;;;;;;;;;;5074969;28;20074;-71
2021/12/05 20:00:57;;;;;;;7.13;1.83;;;;;;;;;;5074591;28;20056;-71